sensor_id;sensor_type;location;lat;lon;timestamp;pressure;altitude;pressure_sealevel;temperature;humidity
57442;BME280;43284;47.042;15.498;2022-08-21T00:01:51;96854.38;;;17.98;71.59
57442;BME280;43284;47.042;15.498;2022-08-21T00:04:18;96838.91;;;17.94;72.85
57442;BME280;43284;47.042;15.498;2022-08-21T00:06:46;96849.72;;;17.90;71.67
57442;BME280;43284;47.042;15.498;2022-08-21T00:09:13;96848.19;;;17.88;73.10
57442;BME280;43284;47.042;15.498;2022-08-21T00:11:42;96840.50;;;17.85;72.81
57442;BME280;43284;47.042;15.498;2022-08-21T00:14:10;96836.19;;;17.84;72.00
57442;BME280;43284;47.042;15.498;2022-08-21T00:16:38;96844.09;;;17.84;71.09
57442;BME280;43284;47.042;15.498;2022-08-21T00:19:06;96840.75;;;17.82;70.77
57442;BME280;43284;47.042;15.498;2022-08-21T00:21:35;96842.66;;;17.80;72.05
57442;BME280;43284;47.042;15.498;2022-08-21T00:24:03;96833.16;;;17.77;72.48
57442;BME280;43284;47.042;15.498;2022-08-21T00:26:31;96831.50;;;17.76;73.05
57442;BME280;43284;47.042;15.498;2022-08-21T00:28:58;96836.91;;;17.75;72.15
57442;BME280;43284;47.042;15.498;2022-08-21T00:31:27;96831.06;;;17.71;72.68
57442;BME280;43284;47.042;15.498;2022-08-21T00:33:54;96827.56;;;17.70;73.03
57442;BME280;43284;47.042;15.498;2022-08-21T00:36:22;96830.34;;;17.69;72.83
57442;BME280;43284;47.042;15.498;2022-08-21T00:38:49;96829.75;;;17.65;72.76
57442;BME280;43284;47.042;15.498;2022-08-21T00:41:18;96835.16;;;17.64;72.87
57442;BME280;43284;47.042;15.498;2022-08-21T00:43:46;96822.09;;;17.62;73.11
57442;BME280;43284;47.042;15.498;2022-08-21T00:46:13;96820.78;;;17.57;72.83
57442;BME280;43284;47.042;15.498;2022-08-21T00:48:41;96825.34;;;17.55;73.28
57442;BME280;43284;47.042;15.498;2022-08-21T00:51:25;96822.25;;;17.49;73.69
57442;BME280;43284;47.042;15.498;2022-08-21T00:53:57;96814.44;;;17.48;73.77
57442;BME280;43284;47.042;15.498;2022-08-21T00:56:28;96811.09;;;17.46;75.31
57442;BME280;43284;47.042;15.498;2022-08-21T00:58:56;96814.00;;;17.43;75.65
57442;BME280;43284;47.042;15.498;2022-08-21T01:01:25;96816.88;;;17.40;76.12
57442;BME280;43284;47.042;15.498;2022-08-21T01:03:52;96809.19;;;17.37;75.93
57442;BME280;43284;47.042;15.498;2022-08-21T01:06:19;96810.16;;;17.36;77.18
57442;BME280;43284;47.042;15.498;2022-08-21T01:08:46;96809.31;;;17.35;77.16
57442;BME280;43284;47.042;15.498;2022-08-21T01:11:21;96802.88;;;17.28;77.00
57442;BME280;43284;47.042;15.498;2022-08-21T01:13:48;96804.78;;;17.26;77.76
57442;BME280;43284;47.042;15.498;2022-08-21T01:16:20;96797.97;;;17.23;78.15
57442;BME280;43284;47.042;15.498;2022-08-21T01:18:48;96794.44;;;17.23;77.87
57442;BME280;43284;47.042;15.498;2022-08-21T01:21:23;96797.25;;;17.21;77.69
57442;BME280;43284;47.042;15.498;2022-08-21T01:23:52;96794.59;;;17.21;77.97
57442;BME280;43284;47.042;15.498;2022-08-21T01:26:24;96797.25;;;17.21;77.57
57442;BME280;43284;47.042;15.498;2022-08-21T01:29:05;96801.53;;;17.22;75.96
57442;BME280;43284;47.042;15.498;2022-08-21T01:31:35;96803.97;;;17.25;75.49
57442;BME280;43284;47.042;15.498;2022-08-21T01:34:04;96807.16;;;17.29;75.23
57442;BME280;43284;47.042;15.498;2022-08-21T01:36:31;96802.47;;;17.33;74.40
57442;BME280;43284;47.042;15.498;2022-08-21T01:38:59;96799.56;;;17.36;73.63
57442;BME280;43284;47.042;15.498;2022-08-21T01:41:26;96802.09;;;17.37;73.47
57442;BME280;43284;47.042;15.498;2022-08-21T01:43:54;96808.00;;;17.41;73.32
57442;BME280;43284;47.042;15.498;2022-08-21T01:46:21;96805.09;;;17.44;73.19
57442;BME280;43284;47.042;15.498;2022-08-21T01:48:48;96801.09;;;17.49;75.74
57442;BME280;43284;47.042;15.498;2022-08-21T01:51:16;96790.53;;;17.49;75.24
57442;BME280;43284;47.042;15.498;2022-08-21T01:53:44;96792.59;;;17.46;75.17
57442;BME280;43284;47.042;15.498;2022-08-21T01:56:14;96777.72;;;17.45;75.30
57442;BME280;43284;47.042;15.498;2022-08-21T01:58:43;96783.00;;;17.45;74.74
57442;BME280;43284;47.042;15.498;2022-08-21T02:01:11;96779.50;;;17.44;74.66
57442;BME280;43284;47.042;15.498;2022-08-21T02:03:40;96781.19;;;17.45;73.54
57442;BME280;43284;47.042;15.498;2022-08-21T02:06:11;96777.00;;;17.43;72.84
57442;BME280;43284;47.042;15.498;2022-08-21T02:08:40;96779.88;;;17.40;72.28
57442;BME280;43284;47.042;15.498;2022-08-21T02:11:07;96775.56;;;17.39;72.78
57442;BME280;43284;47.042;15.498;2022-08-21T02:13:35;96767.63;;;17.39;73.08
57442;BME280;43284;47.042;15.498;2022-08-21T02:16:03;96766.09;;;17.36;73.21
57442;BME280;43284;47.042;15.498;2022-08-21T02:18:30;96766.31;;;17.33;73.52
57442;BME280;43284;47.042;15.498;2022-08-21T02:20:58;96750.75;;;17.30;73.12
57442;BME280;43284;47.042;15.498;2022-08-21T02:23:26;96753.50;;;17.28;74.00
57442;BME280;43284;47.042;15.498;2022-08-21T02:25:59;96753.50;;;17.28;74.42
57442;BME280;43284;47.042;15.498;2022-08-21T02:28:27;96760.47;;;17.29;73.98
57442;BME280;43284;47.042;15.498;2022-08-21T02:30:57;96756.13;;;17.28;75.49
57442;BME280;43284;47.042;15.498;2022-08-21T02:33:25;96760.72;;;17.26;74.78
57442;BME280;43284;47.042;15.498;2022-08-21T02:35:53;96758.91;;;17.27;74.97
57442;BME280;43284;47.042;15.498;2022-08-21T02:38:26;96759.06;;;17.25;74.15
57442;BME280;43284;47.042;15.498;2022-08-21T02:40:56;96754.47;;;17.27;74.90
57442;BME280;43284;47.042;15.498;2022-08-21T02:43:25;96754.59;;;17.26;74.95
57442;BME280;43284;47.042;15.498;2022-08-21T02:45:55;96753.63;;;17.27;75.04
57442;BME280;43284;47.042;15.498;2022-08-21T02:48:25;96749.31;;;17.26;75.17
57442;BME280;43284;47.042;15.498;2022-08-21T02:51:05;96751.25;;;17.24;75.79
57442;BME280;43284;47.042;15.498;2022-08-21T02:53:34;96743.44;;;17.22;76.04
57442;BME280;43284;47.042;15.498;2022-08-21T02:56:11;96747.88;;;17.22;76.23
57442;BME280;43284;47.042;15.498;2022-08-21T02:58:45;96748.97;;;17.19;77.02
57442;BME280;43284;47.042;15.498;2022-08-21T03:01:13;96744.44;;;17.10;75.47
57442;BME280;43284;47.042;15.498;2022-08-21T03:03:42;96744.69;;;17.07;75.62
57442;BME280;43284;47.042;15.498;2022-08-21T03:06:12;96743.75;;;17.08;75.75
57442;BME280;43284;47.042;15.498;2022-08-21T03:08:41;96747.47;;;17.05;75.30
57442;BME280;43284;47.042;15.498;2022-08-21T03:11:12;96747.72;;;17.02;75.43
57442;BME280;43284;47.042;15.498;2022-08-21T03:13:40;96754.69;;;17.03;75.95
57442;BME280;43284;47.042;15.498;2022-08-21T03:16:07;96752.38;;;16.99;76.14
57442;BME280;43284;47.042;15.498;2022-08-21T03:18:35;96750.84;;;16.96;76.03
57442;BME280;43284;47.042;15.498;2022-08-21T03:21:03;96750.97;;;16.95;74.62
57442;BME280;43284;47.042;15.498;2022-08-21T03:23:32;96754.34;;;16.97;74.02
57442;BME280;43284;47.042;15.498;2022-08-21T03:25:59;96756.72;;;17.00;74.77
57442;BME280;43284;47.042;15.498;2022-08-21T03:28:27;96753.38;;;16.98;74.20
57442;BME280;43284;47.042;15.498;2022-08-21T03:30:54;96753.75;;;16.93;75.09
57442;BME280;43284;47.042;15.498;2022-08-21T03:33:22;96751.47;;;16.88;75.60
57442;BME280;43284;47.042;15.498;2022-08-21T03:36:05;96752.91;;;16.81;74.83
57442;BME280;43284;47.042;15.498;2022-08-21T03:38:34;96754.34;;;16.74;74.44
57442;BME280;43284;47.042;15.498;2022-08-21T03:41:02;96756.97;;;16.74;74.53
57442;BME280;43284;47.042;15.498;2022-08-21T03:43:31;96754.59;;;16.71;74.48
57442;BME280;43284;47.042;15.498;2022-08-21T03:46:02;96760.09;;;16.68;75.06
57442;BME280;43284;47.042;15.498;2022-08-21T03:48:30;96760.25;;;16.66;74.76
57442;BME280;43284;47.042;15.498;2022-08-21T03:50:57;96759.63;;;16.63;74.38
57442;BME280;43284;47.042;15.498;2022-08-21T03:53:25;96763.72;;;16.56;73.32
57442;BME280;43284;47.042;15.498;2022-08-21T03:55:53;96761.56;;;16.50;74.34
57442;BME280;43284;47.042;15.498;2022-08-21T03:58:23;96761.22;;;16.43;74.63
57442;BME280;43284;47.042;15.498;2022-08-21T04:00:54;96761.81;;;16.35;75.01
57442;BME280;43284;47.042;15.498;2022-08-21T04:03:22;96767.81;;;16.26;75.05
57442;BME280;43284;47.042;15.498;2022-08-21T04:05:50;96761.09;;;16.22;77.38
57442;BME280;43284;47.042;15.498;2022-08-21T04:08:18;96756.19;;;16.17;79.16
57442;BME280;43284;47.042;15.498;2022-08-21T04:10:49;96768.06;;;16.12;77.49
57442;BME280;43284;47.042;15.498;2022-08-21T04:13:18;96763.34;;;16.04;78.45
57442;BME280;43284;47.042;15.498;2022-08-21T04:15:46;96769.34;;;15.95;79.48
57442;BME280;43284;47.042;15.498;2022-08-21T04:18:14;96762.38;;;15.94;78.88
57442;BME280;43284;47.042;15.498;2022-08-21T04:20:43;96763.59;;;15.90;79.00
57442;BME280;43284;47.042;15.498;2022-08-21T04:23:10;96765.63;;;15.86;78.93
57442;BME280;43284;47.042;15.498;2022-08-21T04:25:37;96762.97;;;15.86;79.28
57442;BME280;43284;47.042;15.498;2022-08-21T04:28:05;96762.25;;;15.84;79.17
57442;BME280;43284;47.042;15.498;2022-08-21T04:30:33;96768.97;;;15.77;79.29
57442;BME280;43284;47.042;15.498;2022-08-21T04:33:00;96766.44;;;15.75;79.66
57442;BME280;43284;47.042;15.498;2022-08-21T04:35:30;96768.34;;;15.73;79.53
57442;BME280;43284;47.042;15.498;2022-08-21T04:37:57;96783.06;;;15.76;79.92
57442;BME280;43284;47.042;15.498;2022-08-21T04:40:27;96778.53;;;15.78;80.36
57442;BME280;43284;47.042;15.498;2022-08-21T04:43:00;96776.63;;;15.80;80.91
57442;BME280;43284;47.042;15.498;2022-08-21T04:45:35;96790.28;;;15.85;80.25
57442;BME280;43284;47.042;15.498;2022-08-21T04:48:06;96784.78;;;15.88;80.10
57442;BME280;43284;47.042;15.498;2022-08-21T04:50:43;96783.47;;;15.94;80.54
57442;BME280;43284;47.042;15.498;2022-08-21T04:53:18;96785.78;;;15.98;80.38
57442;BME280;43284;47.042;15.498;2022-08-21T04:55:47;96787.91;;;16.04;80.50
57442;BME280;43284;47.042;15.498;2022-08-21T04:58:17;96788.19;;;16.13;80.58
57442;BME280;43284;47.042;15.498;2022-08-21T05:00:47;96794.44;;;16.23;81.32
57442;BME280;43284;47.042;15.498;2022-08-21T05:03:17;96785.06;;;16.30;80.89
57442;BME280;43284;47.042;15.498;2022-08-21T05:05:44;96792.25;;;16.39;81.66
57442;BME280;43284;47.042;15.498;2022-08-21T05:08:15;96792.16;;;16.41;80.50
57442;BME280;43284;47.042;15.498;2022-08-21T05:10:44;96803.19;;;16.46;81.04
57442;BME280;43284;47.042;15.498;2022-08-21T05:13:12;96796.59;;;16.52;81.46
57442;BME280;43284;47.042;15.498;2022-08-21T05:15:41;96797.44;;;16.52;81.17
57442;BME280;43284;47.042;15.498;2022-08-21T05:18:09;96796.94;;;16.58;81.80
57442;BME280;43284;47.042;15.498;2022-08-21T05:20:38;96798.50;;;16.61;81.32
57442;BME280;43284;47.042;15.498;2022-08-21T05:23:13;96800.91;;;16.64;82.24
57442;BME280;43284;47.042;15.498;2022-08-21T05:25:41;96806.06;;;16.65;82.80
57442;BME280;43284;47.042;15.498;2022-08-21T05:28:10;96806.88;;;16.66;82.01
57442;BME280;43284;47.042;15.498;2022-08-21T05:30:38;96812.66;;;16.71;82.74
57442;BME280;43284;47.042;15.498;2022-08-21T05:33:06;96808.81;;;16.75;82.88
57442;BME280;43284;47.042;15.498;2022-08-21T05:35:34;96813.00;;;16.78;83.46
57442;BME280;43284;47.042;15.498;2022-08-21T05:38:01;96809.22;;;16.82;83.51
57442;BME280;43284;47.042;15.498;2022-08-21T05:40:30;96812.31;;;16.87;82.63
57442;BME280;43284;47.042;15.498;2022-08-21T05:42:57;96810.84;;;16.94;83.40
57442;BME280;43284;47.042;15.498;2022-08-21T05:45:28;96816.47;;;17.01;83.25
57442;BME280;43284;47.042;15.498;2022-08-21T05:47:56;96822.25;;;17.06;81.36
57442;BME280;43284;47.042;15.498;2022-08-21T05:50:23;96828.59;;;17.15;80.45
57442;BME280;43284;47.042;15.498;2022-08-21T05:52:50;96830.59;;;17.22;80.53
57442;BME280;43284;47.042;15.498;2022-08-21T05:55:17;96829.41;;;17.26;78.71
57442;BME280;43284;47.042;15.498;2022-08-21T05:57:44;96833.22;;;17.34;78.60
57442;BME280;43284;47.042;15.498;2022-08-21T06:00:12;96845.81;;;17.41;77.75
57442;BME280;43284;47.042;15.498;2022-08-21T06:02:40;96840.88;;;17.48;76.96
57442;BME280;43284;47.042;15.498;2022-08-21T06:05:10;96840.22;;;17.56;76.73
57442;BME280;43284;47.042;15.498;2022-08-21T06:07:37;96843.22;;;17.62;77.10
57442;BME280;43284;47.042;15.498;2022-08-21T06:10:04;96835.38;;;17.72;78.29
57442;BME280;43284;47.042;15.498;2022-08-21T06:12:32;96842.78;;;17.78;79.58
57442;BME280;43284;47.042;15.498;2022-08-21T06:14:59;96839.06;;;17.81;78.25
57442;BME280;43284;47.042;15.498;2022-08-21T06:17:26;96837.03;;;17.84;77.36
57442;BME280;43284;47.042;15.498;2022-08-21T06:19:54;96838.31;;;17.90;77.86
57442;BME280;43284;47.042;15.498;2022-08-21T06:22:22;96842.97;;;17.98;75.32
57442;BME280;43284;47.042;15.498;2022-08-21T06:24:49;96839.81;;;18.04;74.57
57442;BME280;43284;47.042;15.498;2022-08-21T06:27:17;96835.53;;;18.12;75.79
57442;BME280;43284;47.042;15.498;2022-08-21T06:29:44;96840.78;;;18.24;78.17
57442;BME280;43284;47.042;15.498;2022-08-21T06:32:12;96845.53;;;18.30;78.00
57442;BME280;43284;47.042;15.498;2022-08-21T06:34:40;96837.66;;;18.40;78.71
57442;BME280;43284;47.042;15.498;2022-08-21T06:37:09;96842.44;;;18.46;78.60
57442;BME280;43284;47.042;15.498;2022-08-21T06:39:37;96845.50;;;18.51;78.50
57442;BME280;43284;47.042;15.498;2022-08-21T06:42:06;96850.00;;;18.60;78.25
57442;BME280;43284;47.042;15.498;2022-08-21T06:44:41;96847.56;;;18.68;76.94
57442;BME280;43284;47.042;15.498;2022-08-21T06:47:08;96846.78;;;18.78;76.65
57442;BME280;43284;47.042;15.498;2022-08-21T06:49:35;96848.06;;;18.83;75.26
57442;BME280;43284;47.042;15.498;2022-08-21T06:52:02;96848.25;;;18.91;74.15
57442;BME280;43284;47.042;15.498;2022-08-21T06:54:30;96844.19;;;18.97;72.83
57442;BME280;43284;47.042;15.498;2022-08-21T06:56:58;96839.19;;;19.04;73.10
57442;BME280;43284;47.042;15.498;2022-08-21T06:59:25;96853.84;;;19.08;72.81
57442;BME280;43284;47.042;15.498;2022-08-21T07:01:52;96850.09;;;19.10;71.71
57442;BME280;43284;47.042;15.498;2022-08-21T07:04:20;96858.50;;;19.16;72.79
57442;BME280;43284;47.042;15.498;2022-08-21T07:06:47;96861.69;;;19.19;72.07
57442;BME280;43284;47.042;15.498;2022-08-21T07:09:14;96856.97;;;19.23;73.02
57442;BME280;43284;47.042;15.498;2022-08-21T07:11:41;96864.91;;;19.23;73.71
57442;BME280;43284;47.042;15.498;2022-08-21T07:14:09;96859.63;;;19.23;74.24
57442;BME280;43284;47.042;15.498;2022-08-21T07:16:36;96857.69;;;19.25;75.37
57442;BME280;43284;47.042;15.498;2022-08-21T07:19:03;96850.84;;;19.22;75.89
57442;BME280;43284;47.042;15.498;2022-08-21T07:21:31;96857.81;;;19.23;75.49
57442;BME280;43284;47.042;15.498;2022-08-21T07:23:58;96860.56;;;19.22;76.79
57442;BME280;43284;47.042;15.498;2022-08-21T07:26:25;96866.75;;;19.22;76.19
57442;BME280;43284;47.042;15.498;2022-08-21T07:28:53;96862.41;;;19.21;75.87
57442;BME280;43284;47.042;15.498;2022-08-21T07:31:22;96858.78;;;19.22;76.22
57442;BME280;43284;47.042;15.498;2022-08-21T07:33:50;96860.56;;;19.22;77.80
57442;BME280;43284;47.042;15.498;2022-08-21T07:36:17;96856.28;;;19.21;77.54
57442;BME280;43284;47.042;15.498;2022-08-21T07:38:45;96856.97;;;19.23;77.66
57442;BME280;43284;47.042;15.498;2022-08-21T07:41:18;96856.56;;;19.27;79.04
57442;BME280;43284;47.042;15.498;2022-08-21T07:43:46;96854.63;;;19.29;78.62
57442;BME280;43284;47.042;15.498;2022-08-21T07:46:14;96857.69;;;19.34;79.26
57442;BME280;43284;47.042;15.498;2022-08-21T07:48:41;96861.75;;;19.39;77.72
57442;BME280;43284;47.042;15.498;2022-08-21T07:51:12;96865.50;;;19.46;78.66
57442;BME280;43284;47.042;15.498;2022-08-21T07:53:40;96856.47;;;19.48;78.09
57442;BME280;43284;47.042;15.498;2022-08-21T07:56:09;96856.06;;;19.53;78.13
57442;BME280;43284;47.042;15.498;2022-08-21T07:58:37;96864.72;;;19.55;77.54
57442;BME280;43284;47.042;15.498;2022-08-21T08:01:06;96867.78;;;19.60;78.17
57442;BME280;43284;47.042;15.498;2022-08-21T08:03:33;96870.72;;;19.67;78.90
57442;BME280;43284;47.042;15.498;2022-08-21T08:06:01;96867.66;;;19.71;77.55
57442;BME280;43284;47.042;15.498;2022-08-21T08:08:31;96861.81;;;19.78;77.08
57442;BME280;43284;47.042;15.498;2022-08-21T08:10:58;96855.66;;;19.87;77.06
57442;BME280;43284;47.042;15.498;2022-08-21T08:13:26;96854.00;;;19.95;76.38
57442;BME280;43284;47.042;15.498;2022-08-21T08:15:54;96853.13;;;20.05;75.75
57442;BME280;43284;47.042;15.498;2022-08-21T08:18:21;96847.00;;;20.14;75.91
57442;BME280;43284;47.042;15.498;2022-08-21T08:20:48;96856.91;;;20.22;73.36
57442;BME280;43284;47.042;15.498;2022-08-21T08:23:16;96858.44;;;20.34;73.07
57442;BME280;43284;47.042;15.498;2022-08-21T08:25:43;96849.19;;;20.38;71.18
57442;BME280;43284;47.042;15.498;2022-08-21T08:28:10;96846.09;;;20.43;70.61
57442;BME280;43284;47.042;15.498;2022-08-21T08:30:37;96851.81;;;20.48;67.21
57442;BME280;43284;47.042;15.498;2022-08-21T08:33:05;96855.03;;;20.51;66.71
57442;BME280;43284;47.042;15.498;2022-08-21T08:35:32;96850.13;;;20.56;65.04
57442;BME280;43284;47.042;15.498;2022-08-21T08:38:01;96848.19;;;20.58;62.60
57442;BME280;43284;47.042;15.498;2022-08-21T08:40:31;96851.09;;;20.65;66.24
57442;BME280;43284;47.042;15.498;2022-08-21T08:43:00;96846.34;;;20.69;67.57
57442;BME280;43284;47.042;15.498;2022-08-21T08:45:29;96851.78;;;20.67;66.32
57442;BME280;43284;47.042;15.498;2022-08-21T08:48:05;96858.94;;;20.67;62.74
57442;BME280;43284;47.042;15.498;2022-08-21T08:50:55;96858.06;;;20.76;66.64
57442;BME280;43284;47.042;15.498;2022-08-21T08:53:35;96857.91;;;20.77;67.94
57442;BME280;43284;47.042;15.498;2022-08-21T08:56:08;96859.56;;;20.78;68.69
57442;BME280;43284;47.042;15.498;2022-08-21T08:58:41;96860.72;;;20.76;61.51
57442;BME280;43284;47.042;15.498;2022-08-21T09:01:13;96856.47;;;20.83;66.57
57442;BME280;43284;47.042;15.498;2022-08-21T09:03:45;96856.72;;;20.90;69.24
57442;BME280;43284;47.042;15.498;2022-08-21T09:06:37;96859.00;;;20.85;69.03
57442;BME280;43284;47.042;15.498;2022-08-21T09:12:16;96862.22;;;20.88;72.50
57442;BME280;43284;47.042;15.498;2022-08-21T09:15:03;96861.66;;;20.85;72.19
57442;BME280;43284;47.042;15.498;2022-08-21T09:20:29;96848.69;;;20.72;64.61
57442;BME280;43284;47.042;15.498;2022-08-21T09:23:22;96855.41;;;20.76;67.80
57442;BME280;43284;47.042;15.498;2022-08-21T09:26:07;96853.13;;;20.81;71.81
57442;BME280;43284;47.042;15.498;2022-08-21T09:28:40;96838.72;;;20.84;73.72
57442;BME280;43284;47.042;15.498;2022-08-21T09:31:20;96833.13;;;20.87;72.81
57442;BME280;43284;47.042;15.498;2022-08-21T09:33:49;96835.09;;;20.85;72.06
57442;BME280;43284;47.042;15.498;2022-08-21T09:38:59;96825.41;;;20.84;69.67
57442;BME280;43284;47.042;15.498;2022-08-21T09:41:32;96823.69;;;20.92;71.60
57442;BME280;43284;47.042;15.498;2022-08-21T09:44:04;96818.94;;;20.96;71.03
57442;BME280;43284;47.042;15.498;2022-08-21T09:46:31;96819.31;;;21.01;70.90
57442;BME280;43284;47.042;15.498;2022-08-21T09:49:02;96812.25;;;20.92;68.10
57442;BME280;43284;47.042;15.498;2022-08-21T09:51:35;96810.41;;;20.92;68.29
57442;BME280;43284;47.042;15.498;2022-08-21T09:56:35;96819.25;;;20.93;67.55
57442;BME280;43284;47.042;15.498;2022-08-21T09:59:32;96822.28;;;20.98;68.28
57442;BME280;43284;47.042;15.498;2022-08-21T10:02:01;96810.97;;;20.96;66.09
57442;BME280;43284;47.042;15.498;2022-08-21T10:04:35;96814.25;;;21.08;68.88
57442;BME280;43284;47.042;15.498;2022-08-21T10:07:11;96805.00;;;21.12;66.63
57442;BME280;43284;47.042;15.498;2022-08-21T10:09:40;96806.94;;;21.19;67.33
57442;BME280;43284;47.042;15.498;2022-08-21T10:12:25;96806.03;;;21.29;65.65
57442;BME280;43284;47.042;15.498;2022-08-21T10:25:56;96805.06;;;21.84;62.87
57442;BME280;43284;47.042;15.498;2022-08-21T10:31:55;96801.59;;;22.09;61.03
57442;BME280;43284;47.042;15.498;2022-08-21T10:43:21;96785.34;;;22.38;57.12
57442;BME280;43284;47.042;15.498;2022-08-21T10:52:22;96780.22;;;22.45;56.25
57442;BME280;43284;47.042;15.498;2022-08-21T11:00:20;96773.09;;;22.54;57.17
57442;BME280;43284;47.042;15.498;2022-08-21T11:05:38;96778.19;;;22.73;58.35
57442;BME280;43284;47.042;15.498;2022-08-21T11:08:26;96770.75;;;22.85;54.62
57442;BME280;43284;47.042;15.498;2022-08-21T11:11:12;96771.44;;;22.87;54.65
57442;BME280;43284;47.042;15.498;2022-08-21T11:14:09;96774.28;;;22.94;54.49
57442;BME280;43284;47.042;15.498;2022-08-21T11:16:40;96769.22;;;23.17;53.66
57442;BME280;43284;47.042;15.498;2022-08-21T11:19:30;96768.31;;;23.00;53.44
57442;BME280;43284;47.042;15.498;2022-08-21T11:25:36;96771.72;;;23.18;55.94
57442;BME280;43284;47.042;15.498;2022-08-21T11:28:22;96765.88;;;23.15;54.26
57442;BME280;43284;47.042;15.498;2022-08-21T11:34:01;96760.22;;;23.18;53.90
57442;BME280;43284;47.042;15.498;2022-08-21T11:39:22;96760.09;;;23.36;53.05
57442;BME280;43284;47.042;15.498;2022-08-21T11:42:22;96758.09;;;23.38;54.42
57442;BME280;43284;47.042;15.498;2022-08-21T11:48:00;96759.09;;;23.53;57.25
57442;BME280;43284;47.042;15.498;2022-08-21T11:50:36;96751.25;;;23.52;53.78
57442;BME280;43284;47.042;15.498;2022-08-21T11:53:28;96750.59;;;23.58;55.92
57442;BME280;43284;47.042;15.498;2022-08-21T11:55:58;96754.09;;;23.58;52.99
57442;BME280;43284;47.042;15.498;2022-08-21T11:58:37;96750.91;;;23.55;54.13
57442;BME280;43284;47.042;15.498;2022-08-21T12:01:26;96754.09;;;23.58;53.78
57442;BME280;43284;47.042;15.498;2022-08-21T12:04:06;96751.13;;;23.61;52.18
57442;BME280;43284;47.042;15.498;2022-08-21T12:06:40;96755.94;;;23.66;54.59
57442;BME280;43284;47.042;15.498;2022-08-21T12:09:33;96748.63;;;23.68;53.65
57442;BME280;43284;47.042;15.498;2022-08-21T12:12:23;96737.09;;;23.59;54.91
57442;BME280;43284;47.042;15.498;2022-08-21T12:18:01;96740.59;;;23.68;50.63
57442;BME280;43284;47.042;15.498;2022-08-21T12:20:41;96734.91;;;23.71;52.91
57442;BME280;43284;47.042;15.498;2022-08-21T12:26:02;96735.09;;;23.70;52.56
57442;BME280;43284;47.042;15.498;2022-08-21T12:28:31;96730.09;;;23.58;52.60
57442;BME280;43284;47.042;15.498;2022-08-21T12:30:58;96729.25;;;23.58;54.04
57442;BME280;43284;47.042;15.498;2022-08-21T12:33:38;96732.44;;;23.53;51.97
57442;BME280;43284;47.042;15.498;2022-08-21T12:36:22;96729.41;;;23.40;53.88
57442;BME280;43284;47.042;15.498;2022-08-21T12:39:03;96728.41;;;23.41;52.42
57442;BME280;43284;47.042;15.498;2022-08-21T12:41:49;96732.25;;;23.38;55.93
57442;BME280;43284;47.042;15.498;2022-08-21T12:44:50;96722.22;;;23.32;57.63
57442;BME280;43284;47.042;15.498;2022-08-21T12:52:43;96720.75;;;23.38;55.06
57442;BME280;43284;47.042;15.498;2022-08-21T12:55:15;96717.44;;;23.44;52.36
57442;BME280;43284;47.042;15.498;2022-08-21T12:57:53;96728.38;;;23.33;55.39
57442;BME280;43284;47.042;15.498;2022-08-21T13:00:23;96724.41;;;23.29;53.44
57442;BME280;43284;47.042;15.498;2022-08-21T13:02:52;96727.09;;;23.29;52.65
57442;BME280;43284;47.042;15.498;2022-08-21T13:05:35;96727.72;;;23.31;54.77
57442;BME280;43284;47.042;15.498;2022-08-21T13:08:08;96730.22;;;23.24;59.18
57442;BME280;43284;47.042;15.498;2022-08-21T13:10:37;96727.88;;;23.21;55.23
57442;BME280;43284;47.042;15.498;2022-08-21T13:13:19;96730.91;;;23.18;57.14
57442;BME280;43284;47.042;15.498;2022-08-21T13:15:48;96734.22;;;23.12;55.37
57442;BME280;43284;47.042;15.498;2022-08-21T13:21:18;96736.06;;;23.11;55.52
57442;BME280;43284;47.042;15.498;2022-08-21T13:23:47;96740.03;;;23.07;56.06
57442;BME280;43284;47.042;15.498;2022-08-21T13:26:17;96730.22;;;23.16;53.60
57442;BME280;43284;47.042;15.498;2022-08-21T13:28:47;96731.34;;;23.13;57.76
57442;BME280;43284;47.042;15.498;2022-08-21T13:31:24;96739.03;;;23.08;56.07
57442;BME280;43284;47.042;15.498;2022-08-21T13:33:55;96744.19;;;23.10;59.28
57442;BME280;43284;47.042;15.498;2022-08-21T13:36:29;96746.78;;;22.93;58.40
57442;BME280;43284;47.042;15.498;2022-08-21T13:39:00;96747.22;;;22.80;61.25
57442;BME280;43284;47.042;15.498;2022-08-21T13:41:34;96746.19;;;22.65;61.84
57442;BME280;43284;47.042;15.498;2022-08-21T13:44:21;96743.50;;;22.57;58.33
57442;BME280;43284;47.042;15.498;2022-08-21T13:46:54;96743.84;;;22.62;60.42
57442;BME280;43284;47.042;15.498;2022-08-21T13:49:29;96745.53;;;22.63;61.43
57442;BME280;43284;47.042;15.498;2022-08-21T13:51:58;96750.53;;;22.66;56.77
57442;BME280;43284;47.042;15.498;2022-08-21T13:54:37;96744.44;;;22.48;58.12
57442;BME280;43284;47.042;15.498;2022-08-21T14:00:49;96758.66;;;22.65;61.13
57442;BME280;43284;47.042;15.498;2022-08-21T14:03:33;96759.16;;;22.60;57.99
57442;BME280;43284;47.042;15.498;2022-08-21T14:06:00;96753.53;;;22.71;53.28
57442;BME280;43284;47.042;15.498;2022-08-21T14:08:34;96755.34;;;22.62;54.20
57442;BME280;43284;47.042;15.498;2022-08-21T14:11:12;96755.03;;;22.66;55.39
57442;BME280;43284;47.042;15.498;2022-08-21T14:13:55;96753.06;;;22.76;53.16
57442;BME280;43284;47.042;15.498;2022-08-21T14:16:27;96762.06;;;22.75;53.29
57442;BME280;43284;47.042;15.498;2022-08-21T14:21:32;96757.09;;;22.88;54.02
57442;BME280;43284;47.042;15.498;2022-08-21T14:24:08;96759.25;;;22.84;57.14
57442;BME280;43284;47.042;15.498;2022-08-21T14:26:48;96754.78;;;22.85;57.52
57442;BME280;43284;47.042;15.498;2022-08-21T14:29:18;96758.38;;;22.76;54.51
57442;BME280;43284;47.042;15.498;2022-08-21T14:31:57;96748.88;;;22.73;57.43
57442;BME280;43284;47.042;15.498;2022-08-21T14:34:28;96744.94;;;22.86;53.06